Ashton, SD

2:42 PM CDT on August 22, 2014 (GMT -0500)
Aberdeen Regional | Change Station
CLOSE
Current Station
Airport
Location: Aberdeen,
Elevation: 1299 ft
Nearby Weather Stations

Elev 1299 ft 45.44 °N, 98.41 °W | Updated 49 minutes ago

Mostly Cloudy
Mostly Cloudy
73 °F
Feels Like 73 °F
N
9
Wind Variable Wind from NNE

Today
High -- | Low -- °F
--% Chance of Precip.
Yesterday
High -- | Low -- °F
Precip. -- in
6:44 AM 8:28 PM
Waning Crescent, 7% visible
Pressure 30.00 in
Visibility 10.0 miles
Clouds Mostly Cloudy 1800 ft
Dew Point 67 °F
Humidity 81%
Rainfall 0.00 in
Snow Depth Not available.
UV 5 out of 12
Pollen 9.40 out of 12
Air Quality Not available.
Flu Activity Not available.
METAR KABR 221853Z AUTO 03008KT 10SM BKN018 23/19 A3001 RMK AO2 SLP158 T02280194

More Conditions Fewer Conditions

Pressure 30.00 in
Visibility 10.0 miles
Clouds Mostly Cloudy 1800 ft
Dew Point 67 °F
Humidity 81%
Rainfall 0.00 in
Snow Depth Not available.
UV 5 out of 12
Pollen 9.40 out of 12
Air Quality Not available.
Flu Activity Not available.
METAR KABR 221853Z AUTO 03008KT 10SM BKN018 23/19 A3001 RMK AO2 SLP158 T02280194

More Conditions Fewer Conditions

10-Day Weather Forecast

Almanac

Astronomy

Aug. 22, 2014 Rise Set
Actual Time 6:44 AM CDT 8:28 PM CDT
Civil Twilight 6:12 AM CDT 8:59 PM CDT
Nautical Twilight 5:34 AM CDT 9:37 PM CDT
Astronomical Twilight 4:53 AM CDT 10:18 PM CDT
Moon 4:04 AM CDT 6:40 PM CDT
Length of Visible Light 14h 47m
Length of Day
13h 44m
Tomorrow will be 2m 54s shorter.
Waning Crescent, 7% of the Moon is Illuminated
Today
Waning Crescent
Aug 25
New
Sep 2
First Quarter
Sep 8
Full
Sep 15
Last Quarter

Today's Extremes

State Highs State Lows

Community

WunderPhotos

Upload Photos

1,746,227 photos uploaded!

Nearby

Snow Depth

Station Depth Elevation
Blind Park 0 in 6890 ft

Earthquake Activity

City Distance Mag. Time & Date
No recent earthquake activity has been reported nearby.
Minimum magnitude displayed is 2.5.

Coastal Water Temperatures

Place Temperature
No Stations Reporting

Nearby Weather Stations